sensor_id;sensor_type;location;lat;lon;timestamp;pressure;altitude;pressure_sealevel;temperature;humidity
25560;BME280;13450;49.374;8.584;2023-09-08T00:02:24;100623.66;;;20.76;98.87
25560;BME280;13450;49.374;8.584;2023-09-08T00:04:50;100618.66;;;20.68;97.07
25560;BME280;13450;49.374;8.584;2023-09-08T00:07:17;100621.84;;;20.65;100.00
25560;BME280;13450;49.374;8.584;2023-09-08T00:09:43;100616.44;;;20.65;96.39
25560;BME280;13450;49.374;8.584;2023-09-08T00:12:08;100612.00;;;20.59;97.13
25560;BME280;13450;49.374;8.584;2023-09-08T00:14:33;100616.19;;;20.49;96.16
25560;BME280;13450;49.374;8.584;2023-09-08T00:16:59;100613.13;;;20.46;100.00
25560;BME280;13450;49.374;8.584;2023-09-08T00:19:24;100618.00;;;20.44;100.00
25560;BME280;13450;49.374;8.584;2023-09-08T00:21:50;100613.41;;;20.44;100.00
25560;BME280;13450;49.374;8.584;2023-09-08T00:24:15;100605.75;;;20.41;100.00
25560;BME280;13450;49.374;8.584;2023-09-08T00:26:41;100608.69;;;20.39;100.00
25560;BME280;13450;49.374;8.584;2023-09-08T00:29:06;100604.59;;;20.37;100.00
25560;BME280;13450;49.374;8.584;2023-09-08T00:31:36;100610.84;;;20.37;100.00
25560;BME280;13450;49.374;8.584;2023-09-08T00:34:01;100604.03;;;20.35;100.00
25560;BME280;13450;49.374;8.584;2023-09-08T00:36:27;100602.94;;;20.36;100.00
25560;BME280;13450;49.374;8.584;2023-09-08T00:38:52;100601.88;;;20.37;99.31
25560;BME280;13450;49.374;8.584;2023-09-08T00:41:17;100602.09;;;20.35;100.00
25560;BME280;13450;49.374;8.584;2023-09-08T00:43:45;100598.00;;;20.33;100.00
25560;BME280;13450;49.374;8.584;2023-09-08T00:46:10;100601.19;;;20.30;100.00
25560;BME280;13450;49.374;8.584;2023-09-08T00:48:37;100598.75;;;20.28;100.00
25560;BME280;13450;49.374;8.584;2023-09-08T00:51:03;100593.81;;;20.25;100.00
25560;BME280;13450;49.374;8.584;2023-09-08T00:53:30;100602.75;;;20.25;100.00
25560;BME280;13450;49.374;8.584;2023-09-08T00:55:56;100605.38;;;20.20;100.00
25560;BME280;13450;49.374;8.584;2023-09-08T00:58:21;100599.47;;;20.23;100.00
25560;BME280;13450;49.374;8.584;2023-09-08T01:00:46;100603.03;;;20.24;100.00
25560;BME280;13450;49.374;8.584;2023-09-08T01:03:12;100603.28;;;20.22;100.00
25560;BME280;13450;49.374;8.584;2023-09-08T01:05:37;100608.34;;;20.19;100.00
25560;BME280;13450;49.374;8.584;2023-09-08T01:08:06;100610.97;;;20.13;100.00
25560;BME280;13450;49.374;8.584;2023-09-08T01:10:32;100611.75;;;20.09;100.00
25560;BME280;13450;49.374;8.584;2023-09-08T01:13:00;100613.28;;;20.05;100.00
25560;BME280;13450;49.374;8.584;2023-09-08T01:15:28;100610.50;;;19.99;100.00
25560;BME280;13450;49.374;8.584;2023-09-08T01:17:53;100605.19;;;19.93;100.00
25560;BME280;13450;49.374;8.584;2023-09-08T01:20:25;100613.38;;;19.81;100.00
25560;BME280;13450;49.374;8.584;2023-09-08T01:25:40;100608.72;;;19.64;100.00
25560;BME280;13450;49.374;8.584;2023-09-08T01:28:08;100616.16;;;19.57;100.00
25560;BME280;13450;49.374;8.584;2023-09-08T01:30:33;100614.09;;;19.47;100.00
25560;BME280;13450;49.374;8.584;2023-09-08T01:32:59;100609.28;;;19.37;100.00
25560;BME280;13450;49.374;8.584;2023-09-08T01:35:25;100615.53;;;19.26;100.00
25560;BME280;13450;49.374;8.584;2023-09-08T01:37:51;100615.91;;;19.17;100.00
25560;BME280;13450;49.374;8.584;2023-09-08T01:40:16;100614.06;;;19.06;100.00
25560;BME280;13450;49.374;8.584;2023-09-08T01:42:44;100608.84;;;18.92;100.00
25560;BME280;13450;49.374;8.584;2023-09-08T01:45:12;100613.22;;;18.81;100.00
25560;BME280;13450;49.374;8.584;2023-09-08T01:47:40;100611.56;;;18.68;100.00
25560;BME280;13450;49.374;8.584;2023-09-08T01:50:06;100603.44;;;18.68;100.00
25560;BME280;13450;49.374;8.584;2023-09-08T01:52:31;100606.28;;;18.62;100.00
25560;BME280;13450;49.374;8.584;2023-09-08T01:54:56;100607.81;;;18.58;100.00
25560;BME280;13450;49.374;8.584;2023-09-08T01:57:22;100611.56;;;18.56;100.00
25560;BME280;13450;49.374;8.584;2023-09-08T01:59:47;100609.31;;;18.41;100.00
25560;BME280;13450;49.374;8.584;2023-09-08T02:02:13;100610.00;;;18.37;100.00
25560;BME280;13450;49.374;8.584;2023-09-08T02:04:39;100606.22;;;18.26;100.00
25560;BME280;13450;49.374;8.584;2023-09-08T02:07:04;100609.63;;;18.21;100.00
25560;BME280;13450;49.374;8.584;2023-09-08T02:09:34;100607.25;;;18.13;100.00
25560;BME280;13450;49.374;8.584;2023-09-08T02:12:00;100605.69;;;18.05;100.00
25560;BME280;13450;49.374;8.584;2023-09-08T02:14:28;100610.81;;;17.95;100.00
25560;BME280;13450;49.374;8.584;2023-09-08T02:16:54;100604.47;;;17.89;100.00
25560;BME280;13450;49.374;8.584;2023-09-08T02:19:19;100607.25;;;17.82;100.00
25560;BME280;13450;49.374;8.584;2023-09-08T02:21:45;100613.00;;;17.74;100.00
25560;BME280;13450;49.374;8.584;2023-09-08T02:24:10;100613.66;;;17.69;100.00
25560;BME280;13450;49.374;8.584;2023-09-08T02:26:35;100607.06;;;17.65;100.00
25560;BME280;13450;49.374;8.584;2023-09-08T02:29:01;100611.34;;;17.54;100.00
25560;BME280;13450;49.374;8.584;2023-09-08T02:31:27;100596.88;;;17.48;100.00
25560;BME280;13450;49.374;8.584;2023-09-08T02:33:52;100615.66;;;17.43;100.00
25560;BME280;13450;49.374;8.584;2023-09-08T02:36:17;100610.31;;;17.36;100.00
25560;BME280;13450;49.374;8.584;2023-09-08T02:38:43;100606.66;;;17.31;100.00
25560;BME280;13450;49.374;8.584;2023-09-08T02:41:08;100616.63;;;17.30;100.00
25560;BME280;13450;49.374;8.584;2023-09-08T02:43:33;100608.81;;;17.22;100.00
25560;BME280;13450;49.374;8.584;2023-09-08T02:45:59;100606.41;;;17.13;100.00
25560;BME280;13450;49.374;8.584;2023-09-08T02:48:24;100607.25;;;17.14;100.00
25560;BME280;13450;49.374;8.584;2023-09-08T02:50:50;100602.06;;;17.12;100.00
25560;BME280;13450;49.374;8.584;2023-09-08T02:53:15;100614.09;;;17.17;100.00
25560;BME280;13450;49.374;8.584;2023-09-08T02:55:40;100612.44;;;17.16;100.00
25560;BME280;13450;49.374;8.584;2023-09-08T02:58:06;100604.34;;;17.16;100.00
25560;BME280;13450;49.374;8.584;2023-09-08T03:00:31;100610.53;;;17.16;100.00
25560;BME280;13450;49.374;8.584;2023-09-08T03:02:56;100604.34;;;17.16;100.00
25560;BME280;13450;49.374;8.584;2023-09-08T03:05:21;100605.53;;;17.20;100.00
25560;BME280;13450;49.374;8.584;2023-09-08T03:07:50;100610.31;;;17.18;100.00
25560;BME280;13450;49.374;8.584;2023-09-08T03:10:15;100605.53;;;17.20;100.00
25560;BME280;13450;49.374;8.584;2023-09-08T03:12:41;100607.75;;;17.23;100.00
25560;BME280;13450;49.374;8.584;2023-09-08T03:15:06;100618.00;;;17.21;100.00
25560;BME280;13450;49.374;8.584;2023-09-08T03:17:32;100613.44;;;17.21;100.00
25560;BME280;13450;49.374;8.584;2023-09-08T03:19:57;100617.63;;;17.17;100.00
25560;BME280;13450;49.374;8.584;2023-09-08T03:22:22;100614.31;;;17.15;100.00
25560;BME280;13450;49.374;8.584;2023-09-08T03:24:52;100613.09;;;17.11;100.00
25560;BME280;13450;49.374;8.584;2023-09-08T03:27:18;100616.84;;;17.10;100.00
25560;BME280;13450;49.374;8.584;2023-09-08T03:29:43;100615.66;;;17.06;100.00
25560;BME280;13450;49.374;8.584;2023-09-08T03:32:08;100614.41;;;17.02;100.00
25560;BME280;13450;49.374;8.584;2023-09-08T03:34:34;100620.66;;;17.02;100.00
25560;BME280;13450;49.374;8.584;2023-09-08T03:36:59;100615.25;;;17.02;100.00
25560;BME280;13450;49.374;8.584;2023-09-08T03:39:24;100614.84;;;16.98;100.00
25560;BME280;13450;49.374;8.584;2023-09-08T03:41:50;100614.91;;;16.92;100.00
25560;BME280;13450;49.374;8.584;2023-09-08T03:44:15;100620.72;;;16.95;100.00
25560;BME280;13450;49.374;8.584;2023-09-08T03:46:40;100618.25;;;16.94;100.00
25560;BME280;13450;49.374;8.584;2023-09-08T03:49:08;100618.47;;;16.92;100.00
25560;BME280;13450;49.374;8.584;2023-09-08T03:51:33;100621.22;;;16.85;100.00
25560;BME280;13450;49.374;8.584;2023-09-08T03:53:58;100617.69;;;16.85;100.00
25560;BME280;13450;49.374;8.584;2023-09-08T03:56:24;100623.94;;;16.85;100.00
25560;BME280;13450;49.374;8.584;2023-09-08T03:58:49;100627.13;;;16.76;100.00
25560;BME280;13450;49.374;8.584;2023-09-08T04:01:15;100619.72;;;16.71;100.00
25560;BME280;13450;49.374;8.584;2023-09-08T04:03:42;100629.94;;;16.62;100.00
25560;BME280;13450;49.374;8.584;2023-09-08T04:06:08;100631.69;;;16.56;100.00
25560;BME280;13450;49.374;8.584;2023-09-08T04:08:34;100626.50;;;16.55;100.00
25560;BME280;13450;49.374;8.584;2023-09-08T04:10:59;100636.91;;;16.51;100.00
25560;BME280;13450;49.374;8.584;2023-09-08T04:13:24;100635.25;;;16.50;100.00
25560;BME280;13450;49.374;8.584;2023-09-08T04:15:50;100637.34;;;16.48;100.00
25560;BME280;13450;49.374;8.584;2023-09-08T04:18:15;100633.44;;;16.44;100.00
25560;BME280;13450;49.374;8.584;2023-09-08T04:20:41;100628.31;;;16.36;100.00
25560;BME280;13450;49.374;8.584;2023-09-08T04:23:06;100636.56;;;16.41;100.00
25560;BME280;13450;49.374;8.584;2023-09-08T04:25:31;100635.34;;;16.37;100.00
25560;BME280;13450;49.374;8.584;2023-09-08T04:27:57;100641.16;;;16.40;100.00
25560;BME280;13450;49.374;8.584;2023-09-08T04:30:22;100639.69;;;16.38;100.00
25560;BME280;13450;49.374;8.584;2023-09-08T04:32:47;100633.09;;;16.33;100.00
25560;BME280;13450;49.374;8.584;2023-09-08T04:35:13;100640.75;;;16.37;100.00
25560;BME280;13450;49.374;8.584;2023-09-08T04:37:38;100637.00;;;16.38;100.00
25560;BME280;13450;49.374;8.584;2023-09-08T04:40:05;100641.81;;;16.36;100.00
25560;BME280;13450;49.374;8.584;2023-09-08T04:42:30;100637.88;;;16.31;100.00
25560;BME280;13450;49.374;8.584;2023-09-08T04:44:58;100649.75;;;16.30;100.00
25560;BME280;13450;49.374;8.584;2023-09-08T04:47:23;100644.59;;;16.22;100.00
25560;BME280;13450;49.374;8.584;2023-09-08T04:49:49;100652.53;;;16.17;100.00
25560;BME280;13450;49.374;8.584;2023-09-08T04:52:14;100648.59;;;16.13;100.00
25560;BME280;13450;49.374;8.584;2023-09-08T04:54:42;100653.81;;;16.07;100.00
25560;BME280;13450;49.374;8.584;2023-09-08T04:57:08;100656.38;;;15.95;100.00
25560;BME280;13450;49.374;8.584;2023-09-08T04:59:33;100658.25;;;15.95;100.00
25560;BME280;13450;49.374;8.584;2023-09-08T05:01:58;100654.28;;;15.98;100.00
25560;BME280;13450;49.374;8.584;2023-09-08T05:04:24;100658.88;;;15.97;100.00
25560;BME280;13450;49.374;8.584;2023-09-08T05:06:49;100663.44;;;15.97;100.00
25560;BME280;13450;49.374;8.584;2023-09-08T05:09:15;100663.00;;;15.93;100.00
25560;BME280;13450;49.374;8.584;2023-09-08T05:11:42;100671.53;;;15.97;100.00
25560;BME280;13450;49.374;8.584;2023-09-08T05:14:10;100668.41;;;15.93;100.00
25560;BME280;13450;49.374;8.584;2023-09-08T05:16:37;100666.34;;;15.95;100.00
25560;BME280;13450;49.374;8.584;2023-09-08T05:19:11;100670.06;;;16.01;100.00
25560;BME280;13450;49.374;8.584;2023-09-08T05:21:39;100667.13;;;16.09;100.00
25560;BME280;13450;49.374;8.584;2023-09-08T05:24:07;100666.06;;;16.10;100.00
25560;BME280;13450;49.374;8.584;2023-09-08T05:26:35;100662.91;;;16.20;100.00
25560;BME280;13450;49.374;8.584;2023-09-08T05:29:01;100666.78;;;16.24;100.00
25560;BME280;13450;49.374;8.584;2023-09-08T05:31:26;100669.03;;;16.34;100.00
25560;BME280;13450;49.374;8.584;2023-09-08T05:33:51;100662.97;;;16.39;100.00
25560;BME280;13450;49.374;8.584;2023-09-08T05:36:19;100665.22;;;16.42;100.00
25560;BME280;13450;49.374;8.584;2023-09-08T05:38:44;100671.78;;;16.53;100.00
25560;BME280;13450;49.374;8.584;2023-09-08T05:41:10;100669.72;;;16.55;100.00
25560;BME280;13450;49.374;8.584;2023-09-08T05:43:35;100672.19;;;16.56;100.00
25560;BME280;13450;49.374;8.584;2023-09-08T05:46:03;100668.78;;;16.68;100.00
25560;BME280;13450;49.374;8.584;2023-09-08T05:48:29;100677.81;;;16.80;100.00
25560;BME280;13450;49.374;8.584;2023-09-08T05:50:54;100682.13;;;16.88;100.00
25560;BME280;13450;49.374;8.584;2023-09-08T05:53:20;100681.47;;;16.93;100.00
25560;BME280;13450;49.374;8.584;2023-09-08T05:55:45;100683.25;;;16.99;100.00
25560;BME280;13450;49.374;8.584;2023-09-08T05:58:10;100686.41;;;16.96;100.00
25560;BME280;13450;49.374;8.584;2023-09-08T06:00:36;100689.41;;;16.88;100.00
25560;BME280;13450;49.374;8.584;2023-09-08T06:03:01;100682.78;;;16.83;100.00
25560;BME280;13450;49.374;8.584;2023-09-08T06:05:27;100688.19;;;16.83;100.00
25560;BME280;13450;49.374;8.584;2023-09-08T06:07:52;100690.00;;;16.90;100.00
25560;BME280;13450;49.374;8.584;2023-09-08T06:10:20;100685.44;;;16.90;100.00
25560;BME280;13450;49.374;8.584;2023-09-08T06:12:45;100686.81;;;16.99;100.00
25560;BME280;13450;49.374;8.584;2023-09-08T06:15:13;100683.84;;;17.08;100.00
25560;BME280;13450;49.374;8.584;2023-09-08T06:17:38;100688.94;;;17.16;100.00
25560;BME280;13450;49.374;8.584;2023-09-08T06:20:04;100693.69;;;17.21;100.00
25560;BME280;13450;49.374;8.584;2023-09-08T06:22:29;100697.84;;;17.23;100.00
25560;BME280;13450;49.374;8.584;2023-09-08T06:24:54;100691.91;;;17.33;100.00
25560;BME280;13450;49.374;8.584;2023-09-08T06:27:19;100687.66;;;17.44;100.00
25560;BME280;13450;49.374;8.584;2023-09-08T06:29:45;100691.69;;;17.54;100.00
25560;BME280;13450;49.374;8.584;2023-09-08T06:32:13;100692.81;;;17.64;100.00
25560;BME280;13450;49.374;8.584;2023-09-08T06:34:38;100686.41;;;17.77;100.00
25560;BME280;13450;49.374;8.584;2023-09-08T06:37:03;100690.47;;;17.87;100.00
25560;BME280;13450;49.374;8.584;2023-09-08T06:39:28;100699.69;;;17.98;100.00
25560;BME280;13450;49.374;8.584;2023-09-08T06:41:54;100695.19;;;18.10;100.00
25560;BME280;13450;49.374;8.584;2023-09-08T06:44:22;100691.25;;;18.25;100.00
25560;BME280;13450;49.374;8.584;2023-09-08T06:46:47;100697.28;;;18.39;100.00
25560;BME280;13450;49.374;8.584;2023-09-08T06:49:13;100696.13;;;18.47;100.00
25560;BME280;13450;49.374;8.584;2023-09-08T06:51:38;100689.91;;;18.58;100.00
25560;BME280;13450;49.374;8.584;2023-09-08T06:54:04;100692.03;;;18.68;100.00
25560;BME280;13450;49.374;8.584;2023-09-08T06:56:29;100690.41;;;18.79;100.00
25560;BME280;13450;49.374;8.584;2023-09-08T06:58:55;100691.25;;;18.91;100.00
25560;BME280;13450;49.374;8.584;2023-09-08T07:01:23;100689.34;;;19.04;100.00
25560;BME280;13450;49.374;8.584;2023-09-08T07:03:48;100697.28;;;19.17;100.00
25560;BME280;13450;49.374;8.584;2023-09-08T07:06:14;100684.19;;;19.26;100.00
25560;BME280;13450;49.374;8.584;2023-09-08T07:08:39;100687.34;;;19.35;100.00
25560;BME280;13450;49.374;8.584;2023-09-08T07:11:06;100691.84;;;19.41;100.00
25560;BME280;13450;49.374;8.584;2023-09-08T07:13:34;100689.09;;;19.53;100.00
25560;BME280;13450;49.374;8.584;2023-09-08T07:15:59;100695.09;;;19.67;100.00
25560;BME280;13450;49.374;8.584;2023-09-08T07:18:25;100688.56;;;19.80;100.00
25560;BME280;13450;49.374;8.584;2023-09-08T07:20:52;100690.41;;;19.92;100.00
25560;BME280;13450;49.374;8.584;2023-09-08T07:23:18;100695.84;;;20.04;100.00
25560;BME280;13450;49.374;8.584;2023-09-08T07:25:47;100689.50;;;20.15;100.00
25560;BME280;13450;49.374;8.584;2023-09-08T07:28:13;100694.31;;;20.25;100.00
25560;BME280;13450;49.374;8.584;2023-09-08T07:30:39;100691.22;;;20.33;100.00
25560;BME280;13450;49.374;8.584;2023-09-08T07:33:04;100691.38;;;20.44;100.00
25560;BME280;13450;49.374;8.584;2023-09-08T07:35:40;100685.78;;;20.50;100.00
25560;BME280;13450;49.374;8.584;2023-09-08T07:38:06;100689.75;;;20.60;100.00
25560;BME280;13450;49.374;8.584;2023-09-08T07:40:33;100688.75;;;20.66;100.00
25560;BME280;13450;49.374;8.584;2023-09-08T07:42:58;100681.84;;;20.75;100.00
25560;BME280;13450;49.374;8.584;2023-09-08T07:45:24;100690.81;;;20.93;100.00
25560;BME280;13450;49.374;8.584;2023-09-08T07:47:49;100686.94;;;21.06;100.00
25560;BME280;13450;49.374;8.584;2023-09-08T07:50:22;100690.41;;;21.19;100.00
25560;BME280;13450;49.374;8.584;2023-09-08T07:52:51;100690.84;;;21.33;100.00
25560;BME280;13450;49.374;8.584;2023-09-08T07:55:19;100694.84;;;21.47;100.00
25560;BME280;13450;49.374;8.584;2023-09-08T07:57:49;100691.72;;;21.61;100.00
25560;BME280;13450;49.374;8.584;2023-09-08T08:00:15;100692.78;;;21.77;100.00
25560;BME280;13450;49.374;8.584;2023-09-08T08:02:46;100690.00;;;21.94;100.00
25560;BME280;13450;49.374;8.584;2023-09-08T08:05:12;100690.97;;;22.10;100.00
25560;BME280;13450;49.374;8.584;2023-09-08T08:07:38;100691.94;;;22.26;100.00
25560;BME280;13450;49.374;8.584;2023-09-08T08:10:05;100693.16;;;22.41;100.00
25560;BME280;13450;49.374;8.584;2023-09-08T08:12:31;100691.84;;;22.48;100.00
25560;BME280;13450;49.374;8.584;2023-09-08T08:14:57;100700.97;;;22.59;100.00
25560;BME280;13450;49.374;8.584;2023-09-08T08:17:23;100688.50;;;22.69;100.00
25560;BME280;13450;49.374;8.584;2023-09-08T08:19:51;100698.97;;;22.82;100.00
25560;BME280;13450;49.374;8.584;2023-09-08T08:22:17;100699.31;;;22.91;100.00
25560;BME280;13450;49.374;8.584;2023-09-08T08:24:42;100692.25;;;22.95;100.00
25560;BME280;13450;49.374;8.584;2023-09-08T08:27:08;100697.47;;;23.02;100.00
25560;BME280;13450;49.374;8.584;2023-09-08T08:29:33;100690.97;;;23.08;100.00
25560;BME280;13450;49.374;8.584;2023-09-08T08:32:01;100692.59;;;23.09;100.00
25560;BME280;13450;49.374;8.584;2023-09-08T08:34:28;100698.06;;;23.09;100.00
25560;BME280;13450;49.374;8.584;2023-09-08T08:36:54;100703.56;;;23.15;100.00
25560;BME280;13450;49.374;8.584;2023-09-08T08:39:19;100692.13;;;23.23;100.00
25560;BME280;13450;49.374;8.584;2023-09-08T08:41:44;100691.59;;;23.26;100.00
25560;BME280;13450;49.374;8.584;2023-09-08T08:44:10;100690.81;;;23.31;100.00
25560;BME280;13450;49.374;8.584;2023-09-08T08:46:36;100684.84;;;23.34;100.00
25560;BME280;13450;49.374;8.584;2023-09-08T08:49:05;100695.56;;;23.46;100.00
25560;BME280;13450;49.374;8.584;2023-09-08T08:51:32;100684.97;;;23.60;100.00
25560;BME280;13450;49.374;8.584;2023-09-08T08:53:57;100684.19;;;23.70;100.00
25560;BME280;13450;49.374;8.584;2023-09-08T08:56:23;100686.94;;;23.75;100.00
25560;BME280;13450;49.374;8.584;2023-09-08T08:58:51;100690.53;;;23.86;100.00
25560;BME280;13450;49.374;8.584;2023-09-08T09:01:17;100690.81;;;23.95;99.18
25560;BME280;13450;49.374;8.584;2023-09-08T09:03:49;100690.56;;;24.01;99.47
25560;BME280;13450;49.374;8.584;2023-09-08T09:06:14;100694.13;;;24.07;97.75
25560;BME280;13450;49.374;8.584;2023-09-08T09:08:42;100696.09;;;24.12;97.57
25560;BME280;13450;49.374;8.584;2023-09-08T09:11:08;100695.25;;;24.11;97.87
25560;BME280;13450;49.374;8.584;2023-09-08T09:13:33;100689.25;;;24.20;98.23
25560;BME280;13450;49.374;8.584;2023-09-08T09:15:59;100691.72;;;24.32;97.81
25560;BME280;13450;49.374;8.584;2023-09-08T09:18:29;100691.47;;;24.43;97.74
25560;BME280;13450;49.374;8.584;2023-09-08T09:21:00;100695.28;;;24.53;95.91
25560;BME280;13450;49.374;8.584;2023-09-08T09:23:30;100693.91;;;24.55;96.22
25560;BME280;13450;49.374;8.584;2023-09-08T09:25:55;100695.00;;;24.65;96.63
25560;BME280;13450;49.374;8.584;2023-09-08T09:28:21;100696.38;;;24.78;96.35
25560;BME280;13450;49.374;8.584;2023-09-08T09:30:50;100690.09;;;24.88;96.39
25560;BME280;13450;49.374;8.584;2023-09-08T09:33:17;100700.75;;;24.94;94.51
25560;BME280;13450;49.374;8.584;2023-09-08T09:35:50;100705.13;;;25.01;94.29
25560;BME280;13450;49.374;8.584;2023-09-08T09:38:17;100701.03;;;24.98;94.50
25560;BME280;13450;49.374;8.584;2023-09-08T09:40:44;100699.09;;;25.04;94.20
25560;BME280;13450;49.374;8.584;2023-09-08T09:43:10;100700.72;;;25.10;94.62
25560;BME280;13450;49.374;8.584;2023-09-08T09:45:37;100694.13;;;25.21;94.32
25560;BME280;13450;49.374;8.584;2023-09-08T09:48:04;100691.38;;;25.32;94.30
25560;BME280;13450;49.374;8.584;2023-09-08T09:50:37;100691.56;;;25.46;92.98
25560;BME280;13450;49.374;8.584;2023-09-08T09:55:34;100686.28;;;25.70;91.87
25560;BME280;13450;49.374;8.584;2023-09-08T09:58:02;100693.41;;;25.71;89.87
25560;BME280;13450;49.374;8.584;2023-09-08T10:00:30;100691.75;;;25.81;90.24
25560;BME280;13450;49.374;8.584;2023-09-08T10:02:58;100681.91;;;25.75;88.21
25560;BME280;13450;49.374;8.584;2023-09-08T10:05:24;100675.81;;;25.83;88.42
25560;BME280;13450;49.374;8.584;2023-09-08T10:07:50;100675.22;;;25.91;88.34
25560;BME280;13450;49.374;8.584;2023-09-08T10:10:17;100676.50;;;26.04;86.79
25560;BME280;13450;49.374;8.584;2023-09-08T10:12:46;100674.75;;;26.19;87.55
25560;BME280;13450;49.374;8.584;2023-09-08T10:15:19;100677.16;;;26.36;85.96
25560;BME280;13450;49.374;8.584;2023-09-08T10:17:45;100674.88;;;26.48;84.48
25560;BME280;13450;49.374;8.584;2023-09-08T10:20:12;100677.97;;;26.66;85.42
25560;BME280;13450;49.374;8.584;2023-09-08T10:22:41;100667.53;;;26.68;84.37
25560;BME280;13450;49.374;8.584;2023-09-08T10:25:08;100665.81;;;26.77;83.66
25560;BME280;13450;49.374;8.584;2023-09-08T10:27:34;100669.47;;;26.97;82.19
25560;BME280;13450;49.374;8.584;2023-09-08T10:30:02;100669.81;;;27.15;81.70
25560;BME280;13450;49.374;8.584;2023-09-08T10:32:32;100669.13;;;27.28;81.17
25560;BME280;13450;49.374;8.584;2023-09-08T10:35:02;100666.88;;;27.55;80.58
25560;BME280;13450;49.374;8.584;2023-09-08T10:37:28;100669.44;;;27.71;78.02
25560;BME280;13450;49.374;8.584;2023-09-08T10:39:55;100669.00;;;27.83;75.98
25560;BME280;13450;49.374;8.584;2023-09-08T10:42:26;100665.50;;;28.15;76.27
25560;BME280;13450;49.374;8.584;2023-09-08T10:44:59;100669.38;;;28.33;77.05
25560;BME280;13450;49.374;8.584;2023-09-08T10:47:31;100668.16;;;28.87;73.50
25560;BME280;13450;49.374;8.584;2023-09-08T10:49:56;100668.38;;;29.47;67.24
25560;BME280;13450;49.374;8.584;2023-09-08T10:52:25;100660.56;;;31.00;61.94
25560;BME280;13450;49.374;8.584;2023-09-08T10:54:53;100657.63;;;33.00;53.24
25560;BME280;13450;49.374;8.584;2023-09-08T10:57:21;100660.97;;;34.89;43.67
25560;BME280;13450;49.374;8.584;2023-09-08T10:59:58;100659.16;;;37.09;37.55
25560;BME280;13450;49.374;8.584;2023-09-08T11:05:00;100652.47;;;39.57;30.05
25560;BME280;13450;49.374;8.584;2023-09-08T11:07:26;100653.56;;;40.55;29.41
25560;BME280;13450;49.374;8.584;2023-09-08T11:09:51;100653.59;;;42.22;27.07
25560;BME280;13450;49.374;8.584;2023-09-08T11:12:16;100653.19;;;42.05;25.78
25560;BME280;13450;49.374;8.584;2023-09-08T11:14:43;100659.25;;;42.44;25.29
25560;BME280;13450;49.374;8.584;2023-09-08T11:17:08;100641.56;;;42.29;24.79
25560;BME280;13450;49.374;8.584;2023-09-08T11:20:00;100638.28;;;43.21;23.83
25560;BME280;13450;49.374;8.584;2023-09-08T11:22:26;100642.38;;;42.87;23.75
25560;BME280;13450;49.374;8.584;2023-09-08T11:24:53;100643.72;;;43.65;23.27
25560;BME280;13450;49.374;8.584;2023-09-08T11:27:19;100642.50;;;44.37;22.10
25560;BME280;13450;49.374;8.584;2023-09-08T11:29:46;100639.88;;;45.38;25.79
25560;BME280;13450;49.374;8.584;2023-09-08T11:32:11;100640.69;;;45.39;24.71
25560;BME280;13450;49.374;8.584;2023-09-08T11:34:39;100628.09;;;44.28;22.25
25560;BME280;13450;49.374;8.584;2023-09-08T11:37:10;100629.78;;;44.67;21.95
25560;BME280;13450;49.374;8.584;2023-09-08T11:39:40;100623.97;;;44.82;21.80
25560;BME280;13450;49.374;8.584;2023-09-08T11:42:10;100621.81;;;44.02;21.92
25560;BME280;13450;49.374;8.584;2023-09-08T11:44:36;100619.06;;;45.25;20.99
25560;BME280;13450;49.374;8.584;2023-09-08T11:47:03;100617.72;;;46.47;20.20
25560;BME280;13450;49.374;8.584;2023-09-08T11:49:38;100621.84;;;45.91;20.29
25560;BME280;13450;49.374;8.584;2023-09-08T11:52:05;100613.84;;;45.58;20.91
25560;BME280;13450;49.374;8.584;2023-09-08T11:54:34;100616.91;;;46.22;20.76
25560;BME280;13450;49.374;8.584;2023-09-08T11:57:02;100613.69;;;46.68;19.86
25560;BME280;13450;49.374;8.584;2023-09-08T11:59:30;100612.38;;;47.17;19.59
25560;BME280;13450;49.374;8.584;2023-09-08T12:01:56;100606.69;;;47.91;18.43
25560;BME280;13450;49.374;8.584;2023-09-08T12:04:22;100610.53;;;47.47;19.04
25560;BME280;13450;49.374;8.584;2023-09-08T12:06:56;100600.47;;;47.43;18.93
25560;BME280;13450;49.374;8.584;2023-09-08T12:09:22;100601.13;;;47.50;19.33
25560;BME280;13450;49.374;8.584;2023-09-08T12:11:47;100596.59;;;47.90;18.59
25560;BME280;13450;49.374;8.584;2023-09-08T12:14:14;100599.50;;;47.70;20.34
25560;BME280;13450;49.374;8.584;2023-09-08T12:16:47;100594.13;;;46.98;20.44
25560;BME280;13450;49.374;8.584;2023-09-08T12:19:31;100596.97;;;47.18;20.01
25560;BME280;13450;49.374;8.584;2023-09-08T12:22:00;100594.19;;;45.47;19.72
25560;BME280;13450;49.374;8.584;2023-09-08T12:27:14;100588.72;;;48.31;17.69
25560;BME280;13450;49.374;8.584;2023-09-08T12:29:40;100585.34;;;48.36;18.20
25560;BME280;13450;49.374;8.584;2023-09-08T12:32:05;100586.53;;;46.50;19.10
25560;BME280;13450;49.374;8.584;2023-09-08T12:34:30;100581.63;;;48.69;18.13
25560;BME280;13450;49.374;8.584;2023-09-08T12:36:58;100585.31;;;48.82;17.19
25560;BME280;13450;49.374;8.584;2023-09-08T12:39:23;100578.63;;;46.86;18.64
25560;BME280;13450;49.374;8.584;2023-09-08T12:41:49;100584.88;;;47.34;18.23
25560;BME280;13450;49.374;8.584;2023-09-08T12:44:14;100583.34;;;50.00;16.32
25560;BME280;13450;49.374;8.584;2023-09-08T12:46:39;100587.69;;;49.92;16.37
25560;BME280;13450;49.374;8.584;2023-09-08T12:49:05;100584.25;;;51.12;18.32
25560;BME280;13450;49.374;8.584;2023-09-08T12:51:30;100577.88;;;50.19;16.35